sensor_id;sensor_type;location;lat;lon;timestamp;temperature;humidity
1455;DHT22;721;48.168;12.818;2023-07-02T00:00:05;19.30;18.50
1455;DHT22;721;48.168;12.818;2023-07-02T00:02:33;18.80;27.80
1455;DHT22;721;48.168;12.818;2023-07-02T00:05:00;18.50;36.80
1455;DHT22;721;48.168;12.818;2023-07-02T00:07:26;18.20;40.10
1455;DHT22;721;48.168;12.818;2023-07-02T00:09:53;18.00;43.90
1455;DHT22;721;48.168;12.818;2023-07-02T00:12:20;17.90;47.60
1455;DHT22;721;48.168;12.818;2023-07-02T00:14:47;17.80;51.80
1455;DHT22;721;48.168;12.818;2023-07-02T00:17:13;17.70;52.50
1455;DHT22;721;48.168;12.818;2023-07-02T00:19:42;17.70;54.80
1455;DHT22;721;48.168;12.818;2023-07-02T00:22:12;18.00;56.60
1455;DHT22;721;48.168;12.818;2023-07-02T00:24:41;17.50;58.80
1455;DHT22;721;48.168;12.818;2023-07-02T00:27:08;17.50;59.90
1455;DHT22;721;48.168;12.818;2023-07-02T00:29:35;17.50;61.50
1455;DHT22;721;48.168;12.818;2023-07-02T00:32:02;17.40;62.40
1455;DHT22;721;48.168;12.818;2023-07-02T00:34:29;17.50;64.30
1455;DHT22;721;48.168;12.818;2023-07-02T00:36:57;17.50;63.50
1455;DHT22;721;48.168;12.818;2023-07-02T00:39:23;17.60;63.70
1455;DHT22;721;48.168;12.818;2023-07-02T00:41:50;17.70;62.80
1455;DHT22;721;48.168;12.818;2023-07-02T00:44:17;17.90;61.90
1455;DHT22;721;48.168;12.818;2023-07-02T00:46:44;17.90;61.80
1455;DHT22;721;48.168;12.818;2023-07-02T00:49:10;17.90;61.10
1455;DHT22;721;48.168;12.818;2023-07-02T00:51:38;17.90;60.40
1455;DHT22;721;48.168;12.818;2023-07-02T00:54:06;18.10;60.00
1455;DHT22;721;48.168;12.818;2023-07-02T00:56:33;18.00;59.00
1455;DHT22;721;48.168;12.818;2023-07-02T00:59:00;18.10;57.40
1455;DHT22;721;48.168;12.818;2023-07-02T01:01:27;18.20;59.40
1455;DHT22;721;48.168;12.818;2023-07-02T01:03:57;18.20;57.60
1455;DHT22;721;48.168;12.818;2023-07-02T01:06:25;18.20;55.90
1455;DHT22;721;48.168;12.818;2023-07-02T01:08:56;18.20;55.80
1455;DHT22;721;48.168;12.818;2023-07-02T01:11:27;18.10;55.70
1455;DHT22;721;48.168;12.818;2023-07-02T01:13:59;18.10;55.10
1455;DHT22;721;48.168;12.818;2023-07-02T01:16:27;18.20;54.50
1455;DHT22;721;48.168;12.818;2023-07-02T01:18:59;18.20;54.80
1455;DHT22;721;48.168;12.818;2023-07-02T01:21:30;18.30;55.90
1455;DHT22;721;48.168;12.818;2023-07-02T01:23:57;18.20;55.10
1455;DHT22;721;48.168;12.818;2023-07-02T01:26:28;18.20;55.10
1455;DHT22;721;48.168;12.818;2023-07-02T01:28:55;18.20;53.80
1455;DHT22;721;48.168;12.818;2023-07-02T01:31:22;18.20;54.80
1455;DHT22;721;48.168;12.818;2023-07-02T01:33:50;18.10;54.00
1455;DHT22;721;48.168;12.818;2023-07-02T01:36:17;18.20;54.80
1455;DHT22;721;48.168;12.818;2023-07-02T01:38:45;18.10;55.70
1455;DHT22;721;48.168;12.818;2023-07-02T01:41:12;18.10;56.20
1455;DHT22;721;48.168;12.818;2023-07-02T01:43:39;18.20;55.90
1455;DHT22;721;48.168;12.818;2023-07-02T01:46:05;18.20;56.80
1455;DHT22;721;48.168;12.818;2023-07-02T01:48:32;18.20;57.00
1455;DHT22;721;48.168;12.818;2023-07-02T01:50:59;18.10;56.00
1455;DHT22;721;48.168;12.818;2023-07-02T01:53:26;18.20;54.90
1455;DHT22;721;48.168;12.818;2023-07-02T01:55:54;18.20;53.90
1455;DHT22;721;48.168;12.818;2023-07-02T01:58:20;18.30;53.00
1455;DHT22;721;48.168;12.818;2023-07-02T02:00:47;18.30;51.90
1455;DHT22;721;48.168;12.818;2023-07-02T02:03:15;18.30;52.00
1455;DHT22;721;48.168;12.818;2023-07-02T02:05:42;18.30;53.30
1455;DHT22;721;48.168;12.818;2023-07-02T02:08:09;18.20;52.90
1455;DHT22;721;48.168;12.818;2023-07-02T02:10:35;18.30;53.00
1455;DHT22;721;48.168;12.818;2023-07-02T02:13:04;18.30;53.00
1455;DHT22;721;48.168;12.818;2023-07-02T02:15:30;18.20;52.90
1455;DHT22;721;48.168;12.818;2023-07-02T02:17:57;18.10;52.80
1455;DHT22;721;48.168;12.818;2023-07-02T02:20:24;18.10;54.10
1455;DHT22;721;48.168;12.818;2023-07-02T02:22:50;18.10;54.40
1455;DHT22;721;48.168;12.818;2023-07-02T02:25:17;18.20;53.90
1455;DHT22;721;48.168;12.818;2023-07-02T02:27:44;18.10;54.60
1455;DHT22;721;48.168;12.818;2023-07-02T02:30:12;18.10;55.10
1455;DHT22;721;48.168;12.818;2023-07-02T02:32:39;18.10;54.30
1455;DHT22;721;48.168;12.818;2023-07-02T02:35:07;18.10;54.50
1455;DHT22;721;48.168;12.818;2023-07-02T02:37:34;18.10;53.40
1455;DHT22;721;48.168;12.818;2023-07-02T02:40:01;18.10;53.30
1455;DHT22;721;48.168;12.818;2023-07-02T02:42:29;18.00;55.00
1455;DHT22;721;48.168;12.818;2023-07-02T02:44:55;17.90;55.60
1455;DHT22;721;48.168;12.818;2023-07-02T02:47:23;17.90;55.70
1455;DHT22;721;48.168;12.818;2023-07-02T02:49:50;18.20;57.00
1455;DHT22;721;48.168;12.818;2023-07-02T02:52:17;17.80;57.90
1455;DHT22;721;48.168;12.818;2023-07-02T02:54:45;17.70;58.80
1455;DHT22;721;48.168;12.818;2023-07-02T02:57:12;17.60;58.80
1455;DHT22;721;48.168;12.818;2023-07-02T02:59:38;17.60;60.40
1455;DHT22;721;48.168;12.818;2023-07-02T03:02:05;17.60;60.30
1455;DHT22;721;48.168;12.818;2023-07-02T03:04:34;17.50;60.40
1455;DHT22;721;48.168;12.818;2023-07-02T03:07:05;17.60;62.20
1455;DHT22;721;48.168;12.818;2023-07-02T03:09:32;17.50;62.00
1455;DHT22;721;48.168;12.818;2023-07-02T03:11:59;17.50;63.00
1455;DHT22;721;48.168;12.818;2023-07-02T03:14:26;17.40;63.10
1455;DHT22;721;48.168;12.818;2023-07-02T03:16:53;17.50;64.30
1455;DHT22;721;48.168;12.818;2023-07-02T03:19:20;17.40;63.60
1455;DHT22;721;48.168;12.818;2023-07-02T03:21:48;17.40;63.60
1455;DHT22;721;48.168;12.818;2023-07-02T03:24:14;17.40;63.60
1455;DHT22;721;48.168;12.818;2023-07-02T03:26:42;17.30;62.70
1455;DHT22;721;48.168;12.818;2023-07-02T03:29:09;17.40;63.90
1455;DHT22;721;48.168;12.818;2023-07-02T03:31:36;17.40;63.80
1455;DHT22;721;48.168;12.818;2023-07-02T03:34:03;17.30;63.60
1455;DHT22;721;48.168;12.818;2023-07-02T03:36:30;17.30;64.00
1455;DHT22;721;48.168;12.818;2023-07-02T03:38:58;17.40;63.60
1455;DHT22;721;48.168;12.818;2023-07-02T03:41:25;17.50;62.40
1455;DHT22;721;48.168;12.818;2023-07-02T03:43:52;17.50;62.40
1455;DHT22;721;48.168;12.818;2023-07-02T03:46:19;17.40;63.30
1455;DHT22;721;48.168;12.818;2023-07-02T03:48:46;17.30;63.50
1455;DHT22;721;48.168;12.818;2023-07-02T03:51:12;17.30;64.00
1455;DHT22;721;48.168;12.818;2023-07-02T03:53:39;17.40;63.50
1455;DHT22;721;48.168;12.818;2023-07-02T03:56:08;17.40;63.90
1455;DHT22;721;48.168;12.818;2023-07-02T03:58:35;17.40;63.60
1455;DHT22;721;48.168;12.818;2023-07-02T04:01:01;17.40;64.10
1455;DHT22;721;48.168;12.818;2023-07-02T04:03:28;17.40;64.00
1455;DHT22;721;48.168;12.818;2023-07-02T04:05:55;17.50;62.40
1455;DHT22;721;48.168;12.818;2023-07-02T04:08:22;17.60;62.60
1455;DHT22;721;48.168;12.818;2023-07-02T04:10:50;17.60;61.80
1455;DHT22;721;48.168;12.818;2023-07-02T04:13:18;17.60;60.30
1455;DHT22;721;48.168;12.818;2023-07-02T04:15:45;17.60;60.40
1455;DHT22;721;48.168;12.818;2023-07-02T04:18:12;17.70;59.80
1455;DHT22;721;48.168;12.818;2023-07-02T04:20:38;17.50;59.70
1455;DHT22;721;48.168;12.818;2023-07-02T04:23:05;17.60;60.20
1455;DHT22;721;48.168;12.818;2023-07-02T04:25:32;17.60;60.30
1455;DHT22;721;48.168;12.818;2023-07-02T04:27:59;17.50;61.00
1455;DHT22;721;48.168;12.818;2023-07-02T04:30:27;17.60;61.60
1455;DHT22;721;48.168;12.818;2023-07-02T04:32:54;17.60;62.00
1455;DHT22;721;48.168;12.818;2023-07-02T04:35:21;17.60;62.10
1455;DHT22;721;48.168;12.818;2023-07-02T04:37:48;17.50;65.40
1455;DHT22;721;48.168;12.818;2023-07-02T04:40:16;17.60;66.40
1455;DHT22;721;48.168;12.818;2023-07-02T04:42:42;17.40;68.10
1455;DHT22;721;48.168;12.818;2023-07-02T04:45:13;17.10;68.50
1455;DHT22;721;48.168;12.818;2023-07-02T04:47:42;17.20;69.90
1455;DHT22;721;48.168;12.818;2023-07-02T04:50:09;17.10;71.10
1455;DHT22;721;48.168;12.818;2023-07-02T04:52:36;17.00;69.70
1455;DHT22;721;48.168;12.818;2023-07-02T04:55:03;17.00;69.00
1455;DHT22;721;48.168;12.818;2023-07-02T04:57:30;17.00;69.50
1455;DHT22;721;48.168;12.818;2023-07-02T04:59:57;17.00;67.50
1455;DHT22;721;48.168;12.818;2023-07-02T05:02:24;17.00;67.00
1455;DHT22;721;48.168;12.818;2023-07-02T05:04:52;16.90;65.30
1455;DHT22;721;48.168;12.818;2023-07-02T05:07:19;16.90;67.00
1455;DHT22;721;48.168;12.818;2023-07-02T05:09:45;16.90;66.20
1455;DHT22;721;48.168;12.818;2023-07-02T05:12:14;16.90;67.30
1455;DHT22;721;48.168;12.818;2023-07-02T05:14:40;16.90;66.70
1455;DHT22;721;48.168;12.818;2023-07-02T05:17:07;16.90;67.70
1455;DHT22;721;48.168;12.818;2023-07-02T05:19:34;17.30;68.30
1455;DHT22;721;48.168;12.818;2023-07-02T05:22:02;16.90;67.50
1455;DHT22;721;48.168;12.818;2023-07-02T05:24:29;17.00;66.20
1455;DHT22;721;48.168;12.818;2023-07-02T05:26:56;17.00;66.70
1455;DHT22;721;48.168;12.818;2023-07-02T05:29:22;17.00;66.50
1455;DHT22;721;48.168;12.818;2023-07-02T05:31:49;17.00;58.00
1455;DHT22;721;48.168;12.818;2023-07-02T05:34:16;16.90;55.20
1455;DHT22;721;48.168;12.818;2023-07-02T05:36:43;16.90;54.80
1455;DHT22;721;48.168;12.818;2023-07-02T05:39:11;17.20;57.90
1455;DHT22;721;48.168;12.818;2023-07-02T05:41:38;16.80;42.90
1455;DHT22;721;48.168;12.818;2023-07-02T05:44:04;16.80;50.80
1455;DHT22;721;48.168;12.818;2023-07-02T05:46:31;16.90;51.60
1455;DHT22;721;48.168;12.818;2023-07-02T05:48:58;17.40;48.90
1455;DHT22;721;48.168;12.818;2023-07-02T05:51:25;16.90;48.90
1455;DHT22;721;48.168;12.818;2023-07-02T05:53:52;16.90;46.90
1455;DHT22;721;48.168;12.818;2023-07-02T05:56:20;17.00;43.90
1455;DHT22;721;48.168;12.818;2023-07-02T05:58:48;17.00;47.30
1455;DHT22;721;48.168;12.818;2023-07-02T06:01:15;17.00;47.50
1455;DHT22;721;48.168;12.818;2023-07-02T06:03:43;16.90;44.50
1455;DHT22;721;48.168;12.818;2023-07-02T06:06:10;17.00;46.50
1455;DHT22;721;48.168;12.818;2023-07-02T06:08:37;17.10;45.60
1455;DHT22;721;48.168;12.818;2023-07-02T06:11:04;17.00;46.80
1455;DHT22;721;48.168;12.818;2023-07-02T06:13:32;17.10;45.20
1455;DHT22;721;48.168;12.818;2023-07-02T06:15:59;17.10;44.60
1455;DHT22;721;48.168;12.818;2023-07-02T06:18:26;17.20;46.30
1455;DHT22;721;48.168;12.818;2023-07-02T06:20:53;17.10;42.20
1455;DHT22;721;48.168;12.818;2023-07-02T06:23:20;17.20;40.00
1455;DHT22;721;48.168;12.818;2023-07-02T06:25:46;17.20;41.00
1455;DHT22;721;48.168;12.818;2023-07-02T06:28:13;17.20;38.30
1455;DHT22;721;48.168;12.818;2023-07-02T06:30:41;17.20;39.50
1455;DHT22;721;48.168;12.818;2023-07-02T06:33:08;17.20;36.60
1455;DHT22;721;48.168;12.818;2023-07-02T06:35:35;17.20;35.40
1455;DHT22;721;48.168;12.818;2023-07-02T06:38:02;17.20;32.50
1455;DHT22;721;48.168;12.818;2023-07-02T06:40:29;17.10;32.20
1455;DHT22;721;48.168;12.818;2023-07-02T06:42:56;17.10;31.00
1455;DHT22;721;48.168;12.818;2023-07-02T06:45:22;17.10;32.30
1455;DHT22;721;48.168;12.818;2023-07-02T06:47:51;17.10;32.20
1455;DHT22;721;48.168;12.818;2023-07-02T06:50:18;17.10;31.70
1455;DHT22;721;48.168;12.818;2023-07-02T06:52:44;17.10;30.50
1455;DHT22;721;48.168;12.818;2023-07-02T06:55:11;17.00;32.10
1455;DHT22;721;48.168;12.818;2023-07-02T06:57:42;17.10;30.90
1455;DHT22;721;48.168;12.818;2023-07-02T07:00:10;17.40;34.10
1455;DHT22;721;48.168;12.818;2023-07-02T07:02:37;16.90;35.10
1455;DHT22;721;48.168;12.818;2023-07-02T07:05:06;16.90;33.00
1455;DHT22;721;48.168;12.818;2023-07-02T07:07:34;17.00;36.00
1455;DHT22;721;48.168;12.818;2023-07-02T07:10:00;16.90;34.50
1455;DHT22;721;48.168;12.818;2023-07-02T07:12:29;16.90;36.60
1455;DHT22;721;48.168;12.818;2023-07-02T07:14:56;16.90;36.70
1455;DHT22;721;48.168;12.818;2023-07-02T07:17:22;16.90;37.20
1455;DHT22;721;48.168;12.818;2023-07-02T07:19:49;16.90;36.20
1455;DHT22;721;48.168;12.818;2023-07-02T07:22:17;16.90;36.30
1455;DHT22;721;48.168;12.818;2023-07-02T07:24:44;16.90;35.20
1455;DHT22;721;48.168;12.818;2023-07-02T07:27:11;16.90;37.10
1455;DHT22;721;48.168;12.818;2023-07-02T07:29:37;16.90;34.70
1455;DHT22;721;48.168;12.818;2023-07-02T07:32:05;16.90;36.10
1455;DHT22;721;48.168;12.818;2023-07-02T07:34:32;16.90;37.10
1455;DHT22;721;48.168;12.818;2023-07-02T07:36:59;17.00;36.70
1455;DHT22;721;48.168;12.818;2023-07-02T07:39:27;16.90;37.10
1455;DHT22;721;48.168;12.818;2023-07-02T07:41:54;17.00;37.40
1455;DHT22;721;48.168;12.818;2023-07-02T07:44:21;17.00;36.50
1455;DHT22;721;48.168;12.818;2023-07-02T07:46:48;17.10;35.30
1455;DHT22;721;48.168;12.818;2023-07-02T07:49:14;17.10;35.90
1455;DHT22;721;48.168;12.818;2023-07-02T07:51:41;17.00;33.40
1455;DHT22;721;48.168;12.818;2023-07-02T07:54:08;16.90;31.70
1455;DHT22;721;48.168;12.818;2023-07-02T07:56:36;16.80;33.70
1455;DHT22;721;48.168;12.818;2023-07-02T07:59:03;16.90;33.40
1455;DHT22;721;48.168;12.818;2023-07-02T08:01:30;16.90;34.70
1455;DHT22;721;48.168;12.818;2023-07-02T08:03:56;16.90;34.40
1455;DHT22;721;48.168;12.818;2023-07-02T08:06:23;16.90;32.90
1455;DHT22;721;48.168;12.818;2023-07-02T08:08:50;16.90;34.10
1455;DHT22;721;48.168;12.818;2023-07-02T08:11:17;17.00;36.20
1455;DHT22;721;48.168;12.818;2023-07-02T08:13:45;17.00;32.80
1455;DHT22;721;48.168;12.818;2023-07-02T08:16:11;17.10;33.80
1455;DHT22;721;48.168;12.818;2023-07-02T08:18:38;17.10;32.20
1455;DHT22;721;48.168;12.818;2023-07-02T08:21:05;17.20;31.40
1455;DHT22;721;48.168;12.818;2023-07-02T08:23:32;17.20;31.80
1455;DHT22;721;48.168;12.818;2023-07-02T08:26:00;17.20;30.00
1455;DHT22;721;48.168;12.818;2023-07-02T08:28:27;17.20;30.60
1455;DHT22;721;48.168;12.818;2023-07-02T08:30:55;17.20;29.50
1455;DHT22;721;48.168;12.818;2023-07-02T08:33:22;17.20;27.10
1455;DHT22;721;48.168;12.818;2023-07-02T08:35:48;17.20;27.60
1455;DHT22;721;48.168;12.818;2023-07-02T08:38:15;17.20;27.60
1455;DHT22;721;48.168;12.818;2023-07-02T08:40:42;17.30;28.80
1455;DHT22;721;48.168;12.818;2023-07-02T08:43:09;17.30;29.90
1455;DHT22;721;48.168;12.818;2023-07-02T08:45:36;17.30;28.20
1455;DHT22;721;48.168;12.818;2023-07-02T08:48:05;17.30;28.00
1455;DHT22;721;48.168;12.818;2023-07-02T08:50:32;17.10;29.30
1455;DHT22;721;48.168;12.818;2023-07-02T08:52:59;17.00;35.50
1455;DHT22;721;48.168;12.818;2023-07-02T08:55:26;17.00;36.20
1455;DHT22;721;48.168;12.818;2023-07-02T08:57:56;17.10;42.20
1455;DHT22;721;48.168;12.818;2023-07-02T09:00:25;16.90;44.40
1455;DHT22;721;48.168;12.818;2023-07-02T09:02:52;16.90;46.10
1455;DHT22;721;48.168;12.818;2023-07-02T09:05:21;16.70;48.50
1455;DHT22;721;48.168;12.818;2023-07-02T09:07:49;16.60;50.90
1455;DHT22;721;48.168;12.818;2023-07-02T09:10:27;16.50;52.70
1455;DHT22;721;48.168;12.818;2023-07-02T09:13:03;16.50;56.00
1455;DHT22;721;48.168;12.818;2023-07-02T09:15:35;16.50;55.60
1455;DHT22;721;48.168;12.818;2023-07-02T09:18:13;16.40;56.00
1455;DHT22;721;48.168;12.818;2023-07-02T09:20:41;16.40;61.30
1455;DHT22;721;48.168;12.818;2023-07-02T09:23:08;16.50;61.40
1455;DHT22;721;48.168;12.818;2023-07-02T09:25:37;16.60;62.30
1455;DHT22;721;48.168;12.818;2023-07-02T09:28:14;16.70;63.10
1455;DHT22;721;48.168;12.818;2023-07-02T09:30:49;17.00;66.30
1455;DHT22;721;48.168;12.818;2023-07-02T09:33:16;17.10;62.60
1455;DHT22;721;48.168;12.818;2023-07-02T09:35:45;17.20;60.70
1455;DHT22;721;48.168;12.818;2023-07-02T09:38:12;17.20;45.70
1455;DHT22;721;48.168;12.818;2023-07-02T09:40:47;17.00;52.50
1455;DHT22;721;48.168;12.818;2023-07-02T09:43:14;17.00;51.80
1455;DHT22;721;48.168;12.818;2023-07-02T09:45:43;17.00;52.50
1455;DHT22;721;48.168;12.818;2023-07-02T09:48:12;17.10;50.60
1455;DHT22;721;48.168;12.818;2023-07-02T09:50:40;17.20;50.90
1455;DHT22;721;48.168;12.818;2023-07-02T09:53:09;17.30;50.40
1455;DHT22;721;48.168;12.818;2023-07-02T09:55:36;17.40;48.70
1455;DHT22;721;48.168;12.818;2023-07-02T09:58:03;17.50;50.10
1455;DHT22;721;48.168;12.818;2023-07-02T10:00:30;17.50;49.10
1455;DHT22;721;48.168;12.818;2023-07-02T10:02:57;17.60;47.50
1455;DHT22;721;48.168;12.818;2023-07-02T10:05:26;17.60;45.50
1455;DHT22;721;48.168;12.818;2023-07-02T10:07:53;17.60;44.30
1455;DHT22;721;48.168;12.818;2023-07-02T10:10:30;17.40;45.80
1455;DHT22;721;48.168;12.818;2023-07-02T10:12:58;17.50;46.70
1455;DHT22;721;48.168;12.818;2023-07-02T10:15:25;17.50;48.30
1455;DHT22;721;48.168;12.818;2023-07-02T10:17:56;17.50;51.60
1455;DHT22;721;48.168;12.818;2023-07-02T10:20:32;17.20;50.30
1455;DHT22;721;48.168;12.818;2023-07-02T10:23:00;17.30;52.60
1455;DHT22;721;48.168;12.818;2023-07-02T10:25:30;17.20;55.10
1455;DHT22;721;48.168;12.818;2023-07-02T10:27:58;17.20;56.60
1455;DHT22;721;48.168;12.818;2023-07-02T10:30:32;17.30;56.40
1455;DHT22;721;48.168;12.818;2023-07-02T10:33:09;17.40;56.00
1455;DHT22;721;48.168;12.818;2023-07-02T10:35:37;17.50;55.50
1455;DHT22;721;48.168;12.818;2023-07-02T10:38:04;17.60;54.80
1455;DHT22;721;48.168;12.818;2023-07-02T10:40:33;17.70;55.20
1455;DHT22;721;48.168;12.818;2023-07-02T10:43:00;17.70;56.40
1455;DHT22;721;48.168;12.818;2023-07-02T10:45:33;17.70;54.60
1455;DHT22;721;48.168;12.818;2023-07-02T10:48:02;17.60;55.20
1455;DHT22;721;48.168;12.818;2023-07-02T10:50:30;17.70;53.20
1455;DHT22;721;48.168;12.818;2023-07-02T10:52:57;17.70;55.80
1455;DHT22;721;48.168;12.818;2023-07-02T10:55:25;17.70;53.60
1455;DHT22;721;48.168;12.818;2023-07-02T10:58:04;17.70;51.10
1455;DHT22;721;48.168;12.818;2023-07-02T11:00:31;17.50;52.30
1455;DHT22;721;48.168;12.818;2023-07-02T11:02:59;17.50;57.70
1455;DHT22;721;48.168;12.818;2023-07-02T11:05:26;17.50;54.40
1455;DHT22;721;48.168;12.818;2023-07-02T11:07:52;17.10;53.60
1455;DHT22;721;48.168;12.818;2023-07-02T11:10:23;17.70;55.10
1455;DHT22;721;48.168;12.818;2023-07-02T11:12:50;17.70;48.60
1455;DHT22;721;48.168;12.818;2023-07-02T11:15:18;17.70;48.30
1455;DHT22;721;48.168;12.818;2023-07-02T11:17:45;17.80;54.70
1455;DHT22;721;48.168;12.818;2023-07-02T11:20:14;17.90;52.20
1455;DHT22;721;48.168;12.818;2023-07-02T11:22:41;18.00;50.50
1455;DHT22;721;48.168;12.818;2023-07-02T11:25:12;18.00;48.90
1455;DHT22;721;48.168;12.818;2023-07-02T11:27:39;18.10;47.80
1455;DHT22;721;48.168;12.818;2023-07-02T11:30:07;18.20;49.90
1455;DHT22;721;48.168;12.818;2023-07-02T11:32:47;18.30;46.80
1455;DHT22;721;48.168;12.818;2023-07-02T11:35:15;18.40;44.30
1455;DHT22;721;48.168;12.818;2023-07-02T11:37:42;18.40;40.20
1455;DHT22;721;48.168;12.818;2023-07-02T11:40:10;18.60;43.60
1455;DHT22;721;48.168;12.818;2023-07-02T11:42:37;18.70;39.20
1455;DHT22;721;48.168;12.818;2023-07-02T11:45:04;18.70;31.10
1455;DHT22;721;48.168;12.818;2023-07-02T11:47:31;18.90;34.60
1455;DHT22;721;48.168;12.818;2023-07-02T11:49:59;19.00;36.70
1455;DHT22;721;48.168;12.818;2023-07-02T11:52:26;19.20;32.70
1455;DHT22;721;48.168;12.818;2023-07-02T11:54:52;19.50;34.50
1455;DHT22;721;48.168;12.818;2023-07-02T11:57:20;19.90;26.50
1455;DHT22;721;48.168;12.818;2023-07-02T11:59:48;19.90;25.70
1455;DHT22;721;48.168;12.818;2023-07-02T12:02:15;19.90;24.10
1455;DHT22;721;48.168;12.818;2023-07-02T12:04:42;19.90;25.10
1455;DHT22;721;48.168;12.818;2023-07-02T12:07:10;19.80;23.90
1455;DHT22;721;48.168;12.818;2023-07-02T12:09:38;19.80;23.90
1455;DHT22;721;48.168;12.818;2023-07-02T12:12:06;19.90;20.10
1455;DHT22;721;48.168;12.818;2023-07-02T12:14:33;20.00;21.60
1455;DHT22;721;48.168;12.818;2023-07-02T12:16:59;20.10;20.90
1455;DHT22;721;48.168;12.818;2023-07-02T12:19:26;20.40;18.40
1455;DHT22;721;48.168;12.818;2023-07-02T12:21:53;20.50;15.60
1455;DHT22;721;48.168;12.818;2023-07-02T12:24:21;20.60;9.90
1455;DHT22;721;48.168;12.818;2023-07-02T12:26:48;20.60;12.90
1455;DHT22;721;48.168;12.818;2023-07-02T12:29:15;20.60;13.10
1455;DHT22;721;48.168;12.818;2023-07-02T12:31:41;20.60;12.70
1455;DHT22;721;48.168;12.818;2023-07-02T12:34:08;20.80;11.30
1455;DHT22;721;48.168;12.818;2023-07-02T12:36:35;21.00;9.20
1455;DHT22;721;48.168;12.818;2023-07-02T12:39:02;21.10;8.90
1455;DHT22;721;48.168;12.818;2023-07-02T12:41:30;21.00;11.60
1455;DHT22;721;48.168;12.818;2023-07-02T12:43:56;21.00;10.90
1455;DHT22;721;48.168;12.818;2023-07-02T12:46:23;21.20;10.30
1455;DHT22;721;48.168;12.818;2023-07-02T12:48:50;21.50;9.20
1455;DHT22;721;48.168;12.818;2023-07-02T12:51:17;21.40;4.80
1455;DHT22;721;48.168;12.818;2023-07-02T12:53:44;21.30;4.90
1455;DHT22;721;48.168;12.818;2023-07-02T12:56:11;21.40;5.10
1455;DHT22;721;48.168;12.818;2023-07-02T12:58:39;21.50;5.30
1455;DHT22;721;48.168;12.818;2023-07-02T13:01:05;21.60;2.60
1455;DHT22;721;48.168;12.818;2023-07-02T13:03:32;21.30;1.70
1455;DHT22;721;48.168;12.818;2023-07-02T13:05:59;21.50;2.30
1455;DHT22;721;48.168;12.818;2023-07-02T13:08:26;21.60;1.90
1455;DHT22;721;48.168;12.818;2023-07-02T13:10:52;21.80;2.60
1455;DHT22;721;48.168;12.818;2023-07-02T13:13:19;21.80;1.00
1455;DHT22;721;48.168;12.818;2023-07-02T13:15:47;21.80;1.00
1455;DHT22;721;48.168;12.818;2023-07-02T13:18:14;21.80;1.00
1455;DHT22;721;48.168;12.818;2023-07-02T13:20:41;21.70;1.00
1455;DHT22;721;48.168;12.818;2023-07-02T13:23:07;21.80;1.00
1455;DHT22;721;48.168;12.818;2023-07-02T13:25:34;21.80;1.00
1455;DHT22;721;48.168;12.818;2023-07-02T13:28:01;21.80;1.00
1455;DHT22;721;48.168;12.818;2023-07-02T13:30:28;21.70;1.00
1455;DHT22;721;48.168;12.818;2023-07-02T13:32:58;21.80;1.00
1455;DHT22;721;48.168;12.818;2023-07-02T13:35:25;21.90;1.00
1455;DHT22;721;48.168;12.818;2023-07-02T13:37:52;22.30;1.00
1455;DHT22;721;48.168;12.818;2023-07-02T13:40:19;22.30;1.00
1455;DHT22;721;48.168;12.818;2023-07-02T13:42:45;22.40;1.00
1455;DHT22;721;48.168;12.818;2023-07-02T13:45:12;22.50;1.00
1455;DHT22;721;48.168;12.818;2023-07-02T13:47:39;22.70;1.00
1455;DHT22;721;48.168;12.818;2023-07-02T13:50:08;23.10;1.00
1455;DHT22;721;48.168;12.818;2023-07-02T13:52:35;23.30;1.00
1455;DHT22;721;48.168;12.818;2023-07-02T13:55:02;23.50;1.00
1455;DHT22;721;48.168;12.818;2023-07-02T13:57:28;23.60;1.00
1455;DHT22;721;48.168;12.818;2023-07-02T13:59:56;23.50;1.00
1455;DHT22;721;48.168;12.818;2023-07-02T14:02:23;23.50;1.00
1455;DHT22;721;48.168;12.818;2023-07-02T14:04:50;23.70;1.00
1455;DHT22;721;48.168;12.818;2023-07-02T14:07:17;23.50;1.00
1455;DHT22;721;48.168;12.818;2023-07-02T14:09:44;23.50;1.00
1455;DHT22;721;48.168;12.818;2023-07-02T14:12:10;23.70;1.00
1455;DHT22;721;48.168;12.818;2023-07-02T14:14:37;23.80;1.00
1455;DHT22;721;48.168;12.818;2023-07-02T14:17:06;23.90;1.00
1455;DHT22;721;48.168;12.818;2023-07-02T14:19:33;24.10;1.00
1455;DHT22;721;48.168;12.818;2023-07-02T14:22:00;24.30;1.00
1455;DHT22;721;48.168;12.818;2023-07-02T14:24:26;24.40;1.00
1455;DHT22;721;48.168;12.818;2023-07-02T14:26:56;24.30;1.00
1455;DHT22;721;48.168;12.818;2023-07-02T14:29:22;24.20;1.00
1455;DHT22;721;48.168;12.818;2023-07-02T14:31:49;23.90;1.00
1455;DHT22;721;48.168;12.818;2023-07-02T14:34:17;24.20;1.00
1455;DHT22;721;48.168;12.818;2023-07-02T14:36:44;24.10;1.00
1455;DHT22;721;48.168;12.818;2023-07-02T14:39:11;24.10;1.00
1455;DHT22;721;48.168;12.818;2023-07-02T14:41:38;23.90;1.00
1455;DHT22;721;48.168;12.818;2023-07-02T14:44:05;24.00;1.00
1455;DHT22;721;48.168;12.818;2023-07-02T14:46:32;24.00;1.00
1455;DHT22;721;48.168;12.818;2023-07-02T14:48:59;23.90;1.00
1455;DHT22;721;48.168;12.818;2023-07-02T14:51:27;23.90;1.00
1455;DHT22;721;48.168;12.818;2023-07-02T14:53:54;23.80;1.00
1455;DHT22;721;48.168;12.818;2023-07-02T14:56:21;23.70;1.00
1455;DHT22;721;48.168;12.818;2023-07-02T14:58:48;23.80;1.00
1455;DHT22;721;48.168;12.818;2023-07-02T15:01:15;23.90;1.00
1455;DHT22;721;48.168;12.818;2023-07-02T15:03:42;24.00;1.00
1455;DHT22;721;48.168;12.818;2023-07-02T15:06:11;24.00;1.00
1455;DHT22;721;48.168;12.818;2023-07-02T15:08:40;24.10;1.00
1455;DHT22;721;48.168;12.818;2023-07-02T15:11:08;24.00;1.00
1455;DHT22;721;48.168;12.818;2023-07-02T15:13:35;23.90;1.00
1455;DHT22;721;48.168;12.818;2023-07-02T15:16:03;23.90;1.00
1455;DHT22;721;48.168;12.818;2023-07-02T15:18:30;23.80;1.00
1455;DHT22;721;48.168;12.818;2023-07-02T15:20:57;23.80;1.00
1455;DHT22;721;48.168;12.818;2023-07-02T15:23:24;23.90;1.00
1455;DHT22;721;48.168;12.818;2023-07-02T15:25:54;24.00;1.00
1455;DHT22;721;48.168;12.818;2023-07-02T15:28:21;24.30;1.00
1455;DHT22;721;48.168;12.818;2023-07-02T15:30:51;24.30;1.00
1455;DHT22;721;48.168;12.818;2023-07-02T15:33:18;24.30;1.00
1455;DHT22;721;48.168;12.818;2023-07-02T15:35:45;24.50;1.00
1455;DHT22;721;48.168;12.818;2023-07-02T15:38:12;24.50;1.00
1455;DHT22;721;48.168;12.818;2023-07-02T15:40:39;24.40;1.00
1455;DHT22;721;48.168;12.818;2023-07-02T15:43:07;24.00;1.00
1455;DHT22;721;48.168;12.818;2023-07-02T15:45:34;23.80;1.00
1455;DHT22;721;48.168;12.818;2023-07-02T15:48:01;23.70;1.00
1455;DHT22;721;48.168;12.818;2023-07-02T15:50:28;23.60;1.00
1455;DHT22;721;48.168;12.818;2023-07-02T15:52:55;23.80;1.00
1455;DHT22;721;48.168;12.818;2023-07-02T15:55:22;24.00;1.00
1455;DHT22;721;48.168;12.818;2023-07-02T15:57:49;24.30;1.00
1455;DHT22;721;48.168;12.818;2023-07-02T16:00:18;24.40;1.00
1455;DHT22;721;48.168;12.818;2023-07-02T16:02:45;24.50;1.00
1455;DHT22;721;48.168;12.818;2023-07-02T16:05:12;24.60;1.00